Time;durP1;ratioP1;P1;durP2;ratioP2;P2;SDS_P1;SDS_P2;PMS_P1;PMS_P2;Temp;Humidity;BMP_temperature;BMP_pressure;BME280_temperature;BME280_humidity;BME280_pressure;Samples;Min_cycle;Max_cycle;Signal;HPM_P1;HPM_P2
2023/04/25 00:02:24;;;;;;;3.65;2.10;;;10.10;67.30;;;;;;4995603;28;20622;-63
2023/04/25 00:04:50;;;;;;;2.60;1.65;;;10.20;67.30;;;;;;4994690;28;20096;-63
2023/04/25 00:07:16;;;;;;;3.05;1.60;;;10.20;67.20;;;;;;4992078;28;20046;-64
2023/04/25 00:09:42;;;;;;;3.30;1.70;;;10.20;67.10;;;;;;4991195;28;20049;-63
2023/04/25 00:12:07;;;;;;;3.58;1.73;;;10.20;66.90;;;;;;4991058;28;20556;-63
2023/04/25 00:14:33;;;;;;;2.90;2.20;;;10.20;67.00;;;;;;4988323;28;20040;-64
2023/04/25 00:17:00;;;;;;;2.63;1.58;;;10.30;67.10;;;;;;5009578;28;20033;-64
2023/04/25 00:19:28;;;;;;;3.20;2.10;;;10.20;67.00;;;;;;5012076;28;20040;-63
2023/04/25 00:21:57;;;;;;;4.90;2.05;;;10.30;67.10;;;;;;5012690;28;20065;-64
2023/04/25 00:24:22;;;;;;;3.15;2.05;;;10.30;67.10;;;;;;5011495;28;20034;-64
2023/04/25 00:26:48;;;;;;;2.88;1.98;;;10.30;67.00;;;;;;5012368;28;20060;-63
2023/04/25 00:29:14;;;;;;;2.28;1.55;;;10.30;67.00;;;;;;5012207;28;20056;-63
2023/04/25 00:31:39;;;;;;;2.00;1.80;;;10.40;67.10;;;;;;5015098;28;20037;-64
2023/04/25 00:34:07;;;;;;;4.15;2.15;;;10.40;67.10;;;;;;5012494;28;20563;-62
2023/04/25 00:36:33;;;;;;;3.42;2.00;;;10.30;67.20;;;;;;5013696;28;20073;-63
2023/04/25 00:38:59;;;;;;;2.65;1.77;;;10.40;67.20;;;;;;5012947;28;20521;-64
2023/04/25 00:41:26;;;;;;;2.55;1.90;;;10.40;67.20;;;;;;5011717;28;20452;-63
2023/04/25 00:43:53;;;;;;;2.60;2.10;;;10.40;67.30;;;;;;5015264;28;20038;-63
2023/04/25 00:46:19;;;;;;;2.60;2.13;;;10.40;67.40;;;;;;5016316;28;20054;-64
2023/04/25 00:48:45;;;;;;;3.05;2.17;;;10.30;67.60;;;;;;5011853;28;20130;-64
2023/04/25 00:51:16;;;;;;;3.00;2.20;;;10.40;67.80;;;;;;5016580;28;20057;-64
2023/04/25 00:53:42;;;;;;;2.50;2.30;;;10.30;68.00;;;;;;5015115;28;20030;-64
2023/04/25 00:56:08;;;;;;;3.88;2.03;;;10.30;68.00;;;;;;5015637;28;20048;-63
2023/04/25 00:58:34;;;;;;;3.30;2.40;;;10.30;68.10;;;;;;5016610;28;20401;-64
2023/04/25 01:01:01;;;;;;;3.30;2.13;;;10.30;68.40;;;;;;5011621;28;20414;-63
2023/04/25 01:03:28;;;;;;;2.42;2.15;;;10.30;68.60;;;;;;5019956;28;20060;-64
2023/04/25 01:05:54;;;;;;;3.13;2.20;;;10.30;68.60;;;;;;5015142;28;20042;-64
2023/04/25 01:08:23;;;;;;;5.45;2.15;;;10.30;68.60;;;;;;5020159;28;20060;-64
2023/04/25 01:10:48;;;;;;;2.15;1.90;;;10.30;68.60;;;;;;5016997;28;20037;-64
2023/04/25 01:13:14;;;;;;;3.30;1.70;;;10.30;68.80;;;;;;5007443;28;20060;-63
2023/04/25 01:15:40;;;;;;;2.05;1.60;;;10.20;68.80;;;;;;5013999;28;20123;-64
2023/04/25 01:18:06;;;;;;;4.20;1.48;;;10.20;69.00;;;;;;5015117;28;20052;-64
2023/04/25 01:20:32;;;;;;;2.63;1.40;;;10.10;68.80;;;;;;5015192;28;20076;-63
2023/04/25 01:22:58;;;;;;;1.70;1.45;;;10.10;69.00;;;;;;5014426;28;20041;-63
2023/04/25 01:25:24;;;;;;;3.33;1.50;;;10.00;69.20;;;;;;5016711;28;20449;-64
2023/04/25 01:27:50;;;;;;;2.15;1.50;;;10.00;69.40;;;;;;5014137;28;20038;-64
2023/04/25 01:30:16;;;;;;;3.03;1.40;;;10.00;69.50;;;;;;5015145;28;20029;-64
2023/04/25 01:32:42;;;;;;;3.50;1.50;;;10.00;69.50;;;;;;5015435;28;20040;-63
2023/04/25 01:35:11;;;;;;;2.30;1.55;;;10.00;69.60;;;;;;5013821;28;20522;-64
2023/04/25 01:37:37;;;;;;;2.35;1.17;;;10.00;69.70;;;;;;5014889;28;20098;-63
2023/04/25 01:40:05;;;;;;;2.45;1.40;;;9.90;69.60;;;;;;5012946;28;20060;-64
2023/04/25 01:42:32;;;;;;;3.60;1.60;;;10.00;69.70;;;;;;5014955;28;20061;-62
2023/04/25 01:44:57;;;;;;;2.05;1.60;;;9.90;69.70;;;;;;5012485;28;20037;-63
2023/04/25 01:47:23;;;;;;;3.03;1.50;;;10.00;69.80;;;;;;5013563;28;20068;-63
2023/04/25 01:49:48;;;;;;;3.28;1.50;;;10.00;69.90;;;;;;5017780;28;20483;-62
2023/04/25 01:52:14;;;;;;;4.05;1.70;;;10.00;69.90;;;;;;5016723;28;20033;-62
2023/04/25 01:54:43;;;;;;;2.30;1.55;;;9.90;69.90;;;;;;5012642;28;20029;-64
2023/04/25 01:57:09;;;;;;;2.92;1.20;;;9.90;69.80;;;;;;5015203;28;20037;-63
2023/04/25 01:59:36;;;;;;;2.17;1.20;;;10.00;69.90;;;;;;5013261;28;20033;-63
2023/04/25 02:02:03;;;;;;;3.45;1.15;;;9.90;70.00;;;;;;5017290;28;20060;-63
2023/04/25 02:04:29;;;;;;;2.83;1.50;;;9.90;70.10;;;;;;5018318;28;20033;-63
2023/04/25 02:06:55;;;;;;;1.52;1.20;;;9.80;70.40;;;;;;5015170;28;20060;-63
2023/04/25 02:09:21;;;;;;;1.67;1.33;;;9.80;70.70;;;;;;5018509;28;20034;-63
2023/04/25 02:11:46;;;;;;;1.65;1.33;;;9.70;70.70;;;;;;5016944;28;20041;-64
2023/04/25 02:14:12;;;;;;;5.40;1.85;;;9.70;71.00;;;;;;5015965;28;20465;-63
2023/04/25 02:16:39;;;;;;;3.00;1.50;;;9.60;71.10;;;;;;5013027;28;20029;-64
2023/04/25 02:19:05;;;;;;;2.78;1.52;;;9.60;71.30;;;;;;5012969;28;20041;-63
2023/04/25 02:21:32;;;;;;;2.28;1.50;;;9.50;71.20;;;;;;5015620;28;20044;-64
2023/04/25 02:23:57;;;;;;;3.20;1.30;;;9.50;71.20;;;;;;5012886;28;20120;-63
2023/04/25 02:26:23;;;;;;;3.38;1.75;;;9.50;71.30;;;;;;5015776;28;20033;-63
2023/04/25 02:28:50;;;;;;;2.47;1.40;;;9.50;71.40;;;;;;5016855;28;20037;-61
2023/04/25 02:31:15;;;;;;;2.40;1.30;;;9.50;71.40;;;;;;5007348;28;20660;-64
2023/04/25 02:33:41;;;;;;;2.22;1.45;;;9.40;71.40;;;;;;4993899;28;20180;-63
2023/04/25 02:36:07;;;;;;;2.17;1.50;;;9.40;71.50;;;;;;4995316;28;20037;-63
2023/04/25 02:38:32;;;;;;;3.88;1.67;;;9.50;71.60;;;;;;4993889;28;20050;-63
2023/04/25 02:40:58;;;;;;;2.80;1.60;;;9.50;71.60;;;;;;4994046;28;20038;-63
2023/04/25 02:43:23;;;;;;;3.55;1.65;;;9.50;71.60;;;;;;4989042;28;20065;-63
2023/04/25 02:45:49;;;;;;;3.65;1.40;;;9.50;71.40;;;;;;4994121;28;20440;-64
2023/04/25 02:48:14;;;;;;;2.17;1.42;;;9.50;71.40;;;;;;4994597;28;20117;-64
2023/04/25 02:50:40;;;;;;;2.28;1.40;;;9.50;71.60;;;;;;4991491;28;20102;-63
2023/04/25 02:53:06;;;;;;;2.28;1.65;;;9.50;71.50;;;;;;4992112;28;20119;-63
2023/04/25 02:55:31;;;;;;;3.33;1.60;;;9.50;71.60;;;;;;4993442;28;20021;-64
2023/04/25 02:57:57;;;;;;;2.30;1.60;;;9.50;71.50;;;;;;4993053;28;20168;-64
2023/04/25 03:00:22;;;;;;;3.45;1.80;;;9.50;71.50;;;;;;4991471;28;20027;-64
2023/04/25 03:02:48;;;;;;;4.88;1.40;;;9.50;71.40;;;;;;4990560;28;20049;-64
2023/04/25 03:05:14;;;;;;;4.63;1.65;;;9.50;71.40;;;;;;4992320;28;20154;-65
2023/04/25 03:07:39;;;;;;;3.15;1.70;;;9.60;71.60;;;;;;4998653;28;20034;-63
2023/04/25 03:10:08;;;;;;;2.42;1.70;;;9.60;71.60;;;;;;4991764;28;20156;-64
2023/04/25 03:12:33;;;;;;;2.22;1.58;;;9.60;71.80;;;;;;4990349;28;20045;-64
2023/04/25 03:14:59;;;;;;;2.10;1.70;;;9.60;71.80;;;;;;4990033;28;20034;-63
2023/04/25 03:17:24;;;;;;;5.00;1.58;;;9.50;72.00;;;;;;4991101;28;20053;-63
2023/04/25 03:19:50;;;;;;;2.72;1.58;;;9.50;72.10;;;;;;4993244;28;20774;-63
2023/04/25 03:22:16;;;;;;;3.63;1.90;;;9.50;72.30;;;;;;4993049;28;20105;-64
2023/04/25 03:24:41;;;;;;;4.72;2.10;;;9.50;72.50;;;;;;4989987;28;20041;-63
2023/04/25 03:27:07;;;;;;;2.63;1.70;;;9.50;72.60;;;;;;4992227;28;20058;-64
2023/04/25 03:29:32;;;;;;;2.90;1.65;;;9.40;72.60;;;;;;4992979;28;20049;-63
2023/04/25 03:31:58;;;;;;;3.30;1.90;;;9.40;72.80;;;;;;4992437;28;20037;-63
2023/04/25 03:34:23;;;;;;;2.67;1.95;;;9.40;72.90;;;;;;4993517;28;20410;-63
2023/04/25 03:36:49;;;;;;;3.70;1.83;;;9.30;73.30;;;;;;4992702;28;20043;-63
2023/04/25 03:39:15;;;;;;;3.55;1.80;;;9.30;73.40;;;;;;4992622;28;20452;-63
2023/04/25 03:41:41;;;;;;;3.70;2.08;;;9.30;73.50;;;;;;4991748;28;20058;-63
2023/04/25 03:44:06;;;;;;;4.10;2.20;;;9.30;73.80;;;;;;4993146;28;20546;-63
2023/04/25 03:46:32;;;;;;;5.82;2.10;;;9.30;73.90;;;;;;4991291;28;20034;-64
2023/04/25 03:48:59;;;;;;;4.30;2.20;;;9.30;74.00;;;;;;4992453;28;20093;-63
2023/04/25 03:51:25;;;;;;;3.47;2.08;;;9.30;74.20;;;;;;4992262;28;20149;-63
2023/04/25 03:53:52;;;;;;;11.25;5.72;;;9.30;74.20;;;;;;4993549;28;20045;-63
2023/04/25 03:56:19;;;;;;;16.75;8.55;;;9.30;74.20;;;;;;4992460;28;20596;-63
2023/04/25 03:58:45;;;;;;;5.95;3.22;;;9.30;74.20;;;;;;4993582;28;20040;-64
2023/04/25 04:01:11;;;;;;;5.25;2.83;;;9.30;74.20;;;;;;4991699;28;20037;-64
2023/04/25 04:03:36;;;;;;;5.93;2.55;;;9.40;74.40;;;;;;4992716;28;20046;-63
2023/04/25 04:06:04;;;;;;;7.55;3.83;;;9.40;74.40;;;;;;4992232;28;20062;-64
2023/04/25 04:08:30;;;;;;;80.57;35.88;;;9.40;74.50;;;;;;4994247;28;20561;-62
2023/04/25 04:10:56;;;;;;;20.42;10.80;;;9.30;74.50;;;;;;4988531;28;20577;-64
2023/04/25 04:13:22;;;;;;;9.98;6.18;;;9.30;74.30;;;;;;4990572;28;20417;-63
2023/04/25 04:15:48;;;;;;;8.27;6.63;;;9.30;74.20;;;;;;4989547;28;20518;-63
2023/04/25 04:18:13;;;;;;;14.85;9.10;;;9.40;74.20;;;;;;4990806;28;20038;-63
2023/04/25 04:20:39;;;;;;;17.27;12.52;;;9.30;74.00;;;;;;4990625;28;20038;-63
2023/04/25 04:23:05;;;;;;;6.00;4.40;;;9.30;74.10;;;;;;4990677;28;20352;-62
2023/04/25 04:25:31;;;;;;;3.78;2.30;;;9.30;74.10;;;;;;4992280;28;20041;-63
2023/04/25 04:27:57;;;;;;;2.65;1.85;;;9.30;74.00;;;;;;4989317;28;20041;-64
2023/04/25 04:30:29;;;;;;;1.92;1.60;;;9.30;73.90;;;;;;4989114;28;22069;-63
2023/04/25 04:32:55;;;;;;;2.15;1.80;;;9.30;73.80;;;;;;5007860;28;20492;-64
2023/04/25 04:35:21;;;;;;;2.83;1.77;;;9.20;73.80;;;;;;5010198;28;20033;-63
2023/04/25 04:37:47;;;;;;;2.08;1.38;;;9.20;73.80;;;;;;5015637;28;20037;-63
2023/04/25 04:40:15;;;;;;;2.20;2.00;;;9.10;73.80;;;;;;5015093;28;20100;-63
2023/04/25 04:42:42;;;;;;;1.90;1.70;;;9.10;73.80;;;;;;5015460;28;20076;-64
2023/04/25 04:45:08;;;;;;;3.25;1.60;;;9.10;73.90;;;;;;5014930;28;20041;-63
2023/04/25 04:47:36;;;;;;;3.53;1.40;;;9.10;73.90;;;;;;5015739;28;20120;-64
2023/04/25 04:50:08;;;;;;;4.45;2.05;;;9.00;74.00;;;;;;5013848;28;20028;-64
2023/04/25 04:52:34;;;;;;;2.17;1.50;;;9.00;74.00;;;;;;5016321;28;20033;-63
2023/04/25 04:54:59;;;;;;;3.80;1.48;;;9.00;74.90;;;;;;5015377;28;20128;-64
2023/04/25 04:57:25;;;;;;;2.92;1.50;;;9.00;74.20;;;;;;5015645;28;20158;-63
2023/04/25 04:59:51;;;;;;;2.60;1.13;;;9.00;74.20;;;;;;5014938;28;20092;-64
2023/04/25 05:02:16;;;;;;;3.25;1.35;;;9.00;74.10;;;;;;5016274;28;20100;-63
2023/04/25 05:04:42;;;;;;;4.15;1.60;;;9.00;74.70;;;;;;5016083;28;20026;-63
2023/04/25 05:07:07;;;;;;;3.67;1.75;;;9.00;74.10;;;;;;5015914;28;20033;-63
2023/04/25 05:09:33;;;;;;;4.15;1.35;;;9.00;74.00;;;;;;5016090;28;20125;-63
2023/04/25 05:11:59;;;;;;;2.15;1.27;;;9.00;74.00;;;;;;5016498;28;20034;-63
2023/04/25 05:14:24;;;;;;;2.75;1.58;;;9.00;74.00;;;;;;5016494;28;20077;-63
2023/04/25 05:16:50;;;;;;;1.73;1.40;;;9.00;74.00;;;;;;5013496;28;20040;-63
2023/04/25 05:19:16;;;;;;;2.50;1.42;;;8.90;73.90;;;;;;5015187;28;20033;-63
2023/04/25 05:21:43;;;;;;;2.63;1.40;;;9.00;73.90;;;;;;5015645;28;20033;-63
2023/04/25 05:24:08;;;;;;;2.53;1.25;;;9.00;73.80;;;;;;5012939;28;20044;-63
2023/04/25 05:26:34;;;;;;;2.55;1.80;;;9.00;74.70;;;;;;5014834;28;20041;-63
2023/04/25 05:28:59;;;;;;;2.83;1.60;;;9.00;73.80;;;;;;5015469;28;20073;-63
2023/04/25 05:31:25;;;;;;;2.95;1.40;;;9.00;73.90;;;;;;5014134;28;20487;-63
2023/04/25 05:33:51;;;;;;;2.90;1.73;;;9.00;74.00;;;;;;5015022;28;20485;-63
2023/04/25 05:36:21;;;;;;;3.67;1.55;;;9.10;74.10;;;;;;5014441;28;20037;-63
2023/04/25 05:38:46;;;;;;;3.22;1.88;;;9.10;74.40;;;;;;5018256;28;20042;-62
2023/04/25 05:41:12;;;;;;;2.95;1.58;;;9.10;74.40;;;;;;5019634;28;20033;-62
2023/04/25 05:43:37;;;;;;;4.18;1.83;;;9.20;74.50;;;;;;5017351;28;20041;-62
2023/04/25 05:46:03;;;;;;;4.78;1.80;;;9.20;74.40;;;;;;5017444;28;20069;-63
2023/04/25 05:48:29;;;;;;;3.25;1.77;;;9.20;74.40;;;;;;5017804;28;20033;-63
2023/04/25 05:50:55;;;;;;;4.22;1.88;;;9.30;74.30;;;;;;5018212;28;20567;-63
2023/04/25 05:53:21;;;;;;;2.20;1.83;;;9.30;74.40;;;;;;5018131;28;20034;-63
2023/04/25 05:55:47;;;;;;;4.57;2.13;;;9.40;74.40;;;;;;5016358;28;20057;-63
2023/04/25 05:58:13;;;;;;;6.60;1.90;;;9.40;74.50;;;;;;5018438;28;20100;-63
2023/04/25 06:00:38;;;;;;;5.43;2.05;;;9.50;74.50;;;;;;5018323;28;20097;-63
2023/04/25 06:03:04;;;;;;;6.63;1.92;;;9.50;74.40;;;;;;5018323;28;20038;-63
2023/04/25 06:05:30;;;;;;;3.47;2.10;;;9.60;74.20;;;;;;5018308;28;20071;-63
2023/04/25 06:07:55;;;;;;;3.35;2.10;;;9.70;74.20;;;;;;5017920;28;20092;-63
2023/04/25 06:10:22;;;;;;;4.32;2.15;;;9.70;74.00;;;;;;5018855;28;20056;-63
2023/04/25 06:12:49;;;;;;;4.35;1.80;;;9.80;73.90;;;;;;5019032;28;20441;-64
2023/04/25 06:15:15;;;;;;;4.90;1.95;;;9.90;73.90;;;;;;5017806;28;20030;-63
2023/04/25 06:17:41;;;;;;;4.95;2.30;;;9.90;73.90;;;;;;5015676;28;20067;-63
2023/04/25 06:20:08;;;;;;;2.72;2.17;;;9.90;73.70;;;;;;5018088;28;20038;-63
2023/04/25 06:22:33;;;;;;;4.03;1.90;;;9.90;73.50;;;;;;5017798;28;20329;-64
2023/04/25 06:25:00;;;;;;;2.70;1.90;;;10.00;73.40;;;;;;5018876;28;20045;-63
2023/04/25 06:27:25;;;;;;;4.20;1.98;;;10.10;73.30;;;;;;5017533;28;20030;-62
2023/04/25 06:29:51;;;;;;;3.17;1.90;;;10.10;73.20;;;;;;5017430;28;20112;-63
2023/04/25 06:32:18;;;;;;;5.38;2.00;;;10.20;73.20;;;;;;5016342;28;20451;-63
2023/04/25 06:34:43;;;;;;;3.95;2.00;;;10.20;73.10;;;;;;5017031;28;20037;-64
2023/04/25 06:37:09;;;;;;;2.95;1.95;;;10.20;73.00;;;;;;5017986;28;20037;-63
2023/04/25 06:39:34;;;;;;;3.38;1.80;;;10.30;73.10;;;;;;5017796;28;20038;-64
2023/04/25 06:42:00;;;;;;;4.63;1.77;;;10.30;72.90;;;;;;5017357;28;20089;-63
2023/04/25 06:44:26;;;;;;;2.63;1.98;;;10.40;72.60;;;;;;5017017;28;20038;-64
2023/04/25 06:46:51;;;;;;;4.40;1.92;;;10.40;72.60;;;;;;5016633;28;20042;-64
2023/04/25 06:49:17;;;;;;;3.97;2.10;;;10.50;72.50;;;;;;5015004;28;20069;-64
2023/04/25 06:51:43;;;;;;;7.35;1.98;;;10.60;73.50;;;;;;5017941;28;20107;-64
2023/04/25 06:54:08;;;;;;;2.70;1.58;;;10.70;72.60;;;;;;5017414;28;20402;-64
2023/04/25 06:56:34;;;;;;;3.08;1.90;;;10.70;72.50;;;;;;5016327;28;20030;-63
2023/04/25 06:59:00;;;;;;;4.15;1.98;;;10.80;72.00;;;;;;5017274;28;20044;-64
2023/04/25 07:01:26;;;;;;;5.63;1.90;;;10.90;71.40;;;;;;5017054;28;20029;-64
2023/04/25 07:03:51;;;;;;;5.05;1.88;;;11.00;71.10;;;;;;5017313;28;20041;-64
2023/04/25 07:06:17;;;;;;;2.90;1.90;;;11.10;71.30;;;;;;5016342;28;20073;-64
2023/04/25 07:08:43;;;;;;;4.97;2.00;;;11.20;71.30;;;;;;5017721;28;20128;-62
2023/04/25 07:11:08;;;;;;;3.50;1.90;;;11.20;71.10;;;;;;5016956;28;20434;-63
2023/04/25 07:13:34;;;;;;;3.72;1.77;;;11.30;70.70;;;;;;5017127;28;20029;-64
2023/04/25 07:16:00;;;;;;;6.22;2.00;;;11.40;70.40;;;;;;5016532;28;20077;-63
2023/04/25 07:18:25;;;;;;;3.60;1.88;;;11.50;70.20;;;;;;5017732;28;20128;-64
2023/04/25 07:20:51;;;;;;;3.17;1.90;;;11.50;69.70;;;;;;5016329;28;20206;-63
2023/04/25 07:23:16;;;;;;;5.25;1.77;;;11.60;69.40;;;;;;5015607;28;20049;-64
2023/04/25 07:25:42;;;;;;;3.30;1.88;;;11.70;68.80;;;;;;5016180;28;20025;-64
2023/04/25 07:28:07;;;;;;;7.45;1.90;;;11.70;68.80;;;;;;5015745;28;20034;-63
2023/04/25 07:30:34;;;;;;;5.30;2.00;;;11.70;68.80;;;;;;5016302;28;20113;-63
2023/04/25 07:33:00;;;;;;;3.63;1.90;;;11.80;68.50;;;;;;5014816;28;20066;-62
2023/04/25 07:35:26;;;;;;;6.07;2.10;;;11.80;68.60;;;;;;5015929;28;20516;-64
2023/04/25 07:37:51;;;;;;;6.75;1.90;;;11.80;68.60;;;;;;5015017;28;20045;-64
2023/04/25 07:40:17;;;;;;;2.22;1.55;;;11.80;68.30;;;;;;5013928;28;20382;-63
2023/04/25 07:42:42;;;;;;;4.60;1.80;;;11.80;68.30;;;;;;5014636;28;20163;-63
2023/04/25 07:45:09;;;;;;;2.25;1.77;;;11.80;68.30;;;;;;5015776;28;20100;-61
2023/04/25 07:47:35;;;;;;;3.03;2.00;;;11.90;68.10;;;;;;5016478;28;20109;-62
2023/04/25 07:50:00;;;;;;;4.13;1.92;;;11.90;68.00;;;;;;5014897;28;20164;-61
2023/04/25 07:52:26;;;;;;;3.65;1.88;;;12.00;67.50;;;;;;5017266;28;20567;-61
2023/04/25 07:54:52;;;;;;;3.33;1.90;;;12.00;67.20;;;;;;5015914;28;20029;-62
2023/04/25 07:57:18;;;;;;;4.30;1.98;;;12.00;67.10;;;;;;5015597;28;20273;-62
2023/04/25 07:59:43;;;;;;;3.70;1.90;;;12.00;67.10;;;;;;5016729;28;20447;-63
2023/04/25 08:02:09;;;;;;;4.05;1.80;;;12.00;67.30;;;;;;5011907;28;20545;-64
2023/04/25 08:04:35;;;;;;;3.38;1.90;;;12.00;67.50;;;;;;5016321;28;20029;-64
2023/04/25 08:07:01;;;;;;;3.88;2.00;;;12.00;67.30;;;;;;5016749;28;20400;-63
2023/04/25 08:09:26;;;;;;;3.85;1.73;;;12.00;66.90;;;;;;5017435;28;20045;-61
2023/04/25 08:11:52;;;;;;;5.45;2.10;;;11.90;66.60;;;;;;5016028;28;20088;-63
2023/04/25 08:14:18;;;;;;;3.47;1.58;;;11.90;66.50;;;;;;5016278;28;20035;-63
2023/04/25 08:16:43;;;;;;;3.40;2.08;;;11.90;66.90;;;;;;5017349;28;20034;-63
2023/04/25 08:19:10;;;;;;;4.57;2.05;;;11.80;67.20;;;;;;5015784;28;20041;-63
2023/04/25 08:21:36;;;;;;;2.75;2.00;;;11.80;67.60;;;;;;5015705;28;20042;-63
2023/04/25 08:24:02;;;;;;;6.35;2.20;;;11.80;67.80;;;;;;5016597;28;20787;-63
2023/04/25 08:26:28;;;;;;;2.70;1.83;;;11.80;67.80;;;;;;5016248;28;20037;-63
2023/04/25 08:28:54;;;;;;;3.38;2.20;;;11.90;68.00;;;;;;5016732;28;20034;-62
2023/04/25 08:31:19;;;;;;;3.33;1.75;;;11.90;68.00;;;;;;5015306;28;20048;-63
2023/04/25 08:33:45;;;;;;;3.80;1.90;;;11.80;68.30;;;;;;5016129;28;20118;-63
2023/04/25 08:36:11;;;;;;;5.95;2.72;;;11.90;68.40;;;;;;5015656;28;20037;-62
2023/04/25 08:38:36;;;;;;;5.05;2.50;;;11.90;68.20;;;;;;5016771;28;20068;-63
2023/04/25 08:41:02;;;;;;;4.40;2.50;;;11.80;68.40;;;;;;5018404;28;20038;-63
2023/04/25 08:43:30;;;;;;;5.07;3.25;;;11.80;68.70;;;;;;5016156;28;20037;-63
2023/04/25 08:46:00;;;;;;;2.90;1.88;;;11.80;68.80;;;;;;5016421;28;20044;-61
2023/04/25 08:48:28;;;;;;;3.47;1.60;;;11.80;69.10;;;;;;5016946;28;20468;-64
2023/04/25 08:50:55;;;;;;;2.58;1.40;;;11.80;68.80;;;;;;4996640;28;21369;-64
2023/04/25 08:53:29;;;;;;;4.13;1.70;;;11.80;67.40;;;;;;4992922;28;20034;-64
2023/04/25 08:55:56;;;;;;;5.13;1.55;;;11.80;66.00;;;;;;4996883;28;20046;-63
2023/04/25 08:58:23;;;;;;;2.22;2.05;;;11.70;66.00;;;;;;4995272;28;20406;-64
2023/04/25 09:00:49;;;;;;;3.53;1.75;;;11.70;66.40;;;;;;4996609;28;20026;-64
2023/04/25 09:03:16;;;;;;;2.20;2.00;;;11.70;66.50;;;;;;4996026;28;20030;-63
2023/04/25 09:05:42;;;;;;;5.60;2.05;;;11.70;67.10;;;;;;4996248;28;20030;-63
2023/04/25 09:08:08;;;;;;;2.92;1.83;;;11.60;67.20;;;;;;4997058;28;20029;-63
2023/04/25 09:10:34;;;;;;;2.90;2.00;;;11.60;67.40;;;;;;4997451;28;20409;-64
2023/04/25 09:13:12;;;;;;;2.63;1.90;;;11.60;67.70;;;;;;4998495;28;20607;-63
2023/04/25 09:15:51;;;;;;;6.32;1.98;;;11.60;67.80;;;;;;5000057;28;20368;-64
2023/04/25 09:18:25;;;;;;;6.28;2.22;;;11.70;68.30;;;;;;5000830;28;20061;-62
2023/04/25 09:20:52;;;;;;;4.15;2.05;;;11.70;67.20;;;;;;4999461;28;20142;-63
2023/04/25 09:23:21;;;;;;;3.28;1.85;;;11.70;66.90;;;;;;4999327;28;20038;-64
2023/04/25 09:25:51;;;;;;;1.90;1.67;;;11.80;66.90;;;;;;5000557;28;20038;-63
2023/04/25 09:28:24;;;;;;;2.60;0.73;;;11.80;66.90;;;;;;4999945;28;20041;-63
2023/04/25 09:30:56;;;;;;;1.52;1.00;;;11.80;66.70;;;;;;4998166;28;20045;-63
2023/04/25 09:33:30;;;;;;;1.42;1.02;;;11.70;67.10;;;;;;5000475;28;20562;-63
2023/04/25 09:36:04;;;;;;;1.77;1.42;;;11.50;67.80;;;;;;4999188;28;20141;-63
2023/04/25 09:38:32;;;;;;;1.58;0.98;;;11.40;68.10;;;;;;4998591;28;20034;-64
2023/04/25 09:40:57;;;;;;;3.25;0.90;;;11.30;68.30;;;;;;4999467;28;20486;-63
2023/04/25 09:43:24;;;;;;;1.55;0.90;;;11.20;68.30;;;;;;4998328;28;20125;-62
2023/04/25 09:45:51;;;;;;;1.67;0.90;;;11.10;68.50;;;;;;5000032;28;20556;-64
2023/04/25 09:48:25;;;;;;;3.35;0.90;;;11.00;68.80;;;;;;4998878;28;20042;-62
2023/04/25 09:51:09;;;;;;;0.85;0.70;;;10.90;69.70;;;;;;4998952;28;20628;-63
2023/04/25 09:53:43;;;;;;;1.92;0.65;;;10.80;70.00;;;;;;4997899;28;20116;-63
2023/04/25 09:56:11;;;;;;;0.60;0.60;;;10.70;69.90;;;;;;4999830;28;20034;-62
2023/04/25 09:58:40;;;;;;;1.42;0.68;;;10.60;69.70;;;;;;4997817;28;20111;-62
2023/04/25 10:01:10;;;;;;;2.88;0.77;;;10.50;69.90;;;;;;4999615;28;20088;-62
2023/04/25 10:03:40;;;;;;;0.88;0.40;;;10.40;70.20;;;;;;4998368;28;20036;-62
2023/04/25 10:06:12;;;;;;;0.35;0.35;;;10.30;70.50;;;;;;4998106;28;20031;-63
2023/04/25 10:08:38;;;;;;;0.45;0.30;;;10.30;71.10;;;;;;4999267;28;20034;-63
2023/04/25 10:11:07;;;;;;;2.08;1.35;;;10.20;70.90;;;;;;4998476;28;20463;-63
2023/04/25 10:13:34;;;;;;;1.52;1.42;;;10.10;71.40;;;;;;4998316;28;20034;-63
2023/04/25 10:16:01;;;;;;;16.83;11.30;;;10.10;71.60;;;;;;4998432;28;20034;-61
2023/04/25 10:18:28;;;;;;;4.05;3.28;;;10.00;72.00;;;;;;4999235;28;20313;-64
2023/04/25 10:20:56;;;;;;;1.27;0.90;;;10.00;72.20;;;;;;4999451;28;20698;-64
2023/04/25 10:23:23;;;;;;;2.55;1.88;;;9.80;72.10;;;;;;4998238;28;20130;-62
2023/04/25 10:25:53;;;;;;;1.02;0.70;;;9.90;72.30;;;;;;5009432;28;20083;-63
2023/04/25 10:28:19;;;;;;;1.30;0.50;;;9.90;72.50;;;;;;5018239;28;20025;-63
2023/04/25 10:31:01;;;;;;;1.02;1.02;;;9.80;72.40;;;;;;5018258;28;20141;-62
2023/04/25 10:33:44;;;;;;;0.73;0.73;;;9.80;72.90;;;;;;5018296;28;20045;-63
2023/04/25 10:36:16;;;;;;;1.80;0.77;;;9.80;73.50;;;;;;5019083;28;20042;-63
2023/04/25 10:38:43;;;;;;;1.05;1.05;;;9.70;73.20;;;;;;5017387;28;20095;-64
2023/04/25 10:41:11;;;;;;;1.40;0.77;;;9.70;73.00;;;;;;5034060;28;20029;-64
2023/04/25 10:43:39;;;;;;;1.15;0.50;;;9.70;73.20;;;;;;5016003;28;20573;-63
2023/04/25 10:46:25;;;;;;;0.50;0.50;;;9.70;73.50;;;;;;5017146;28;20413;-63
2023/04/25 10:48:52;;;;;;;0.77;0.40;;;9.70;74.50;;;;;;5016969;28;20042;-64
2023/04/25 10:51:19;;;;;;;0.77;0.60;;;9.70;74.00;;;;;;5019267;28;20087;-63
2023/04/25 10:53:45;;;;;;;0.60;0.50;;;9.70;74.40;;;;;;5017262;28;20108;-63
2023/04/25 10:56:28;;;;;;;0.60;0.60;;;9.70;74.90;;;;;;5016932;28;20251;-63
2023/04/25 10:59:11;;;;;;;1.08;0.55;;;9.70;76.00;;;;;;5017123;28;20045;-64
2023/04/25 11:01:51;;;;;;;0.75;0.63;;;9.60;77.00;;;;;;5018543;28;20041;-63
2023/04/25 11:04:24;;;;;;;1.35;0.77;;;9.60;75.80;;;;;;5018253;28;20030;-64
2023/04/25 11:07:05;;;;;;;0.75;0.75;;;9.60;76.50;;;;;;5018796;28;20034;-64
2023/04/25 11:09:33;;;;;;;1.15;0.80;;;9.60;77.00;;;;;;5018946;28;20112;-63
2023/04/25 11:12:00;;;;;;;0.70;0.68;;;9.60;76.20;;;;;;5018901;28;20160;-63
2023/04/25 11:14:26;;;;;;;0.50;0.50;;;9.50;77.00;;;;;;5019071;28;20480;-63
2023/04/25 11:16:59;;;;;;;1.40;0.50;;;9.50;77.00;;;;;;5014326;28;20422;-63
2023/04/25 11:19:26;;;;;;;0.70;0.50;;;9.40;77.50;;;;;;5006458;28;20056;-63
2023/04/25 11:21:56;;;;;;;1.80;0.60;;;9.30;77.30;;;;;;5018439;28;20084;-63
2023/04/25 11:24:32;;;;;;;1.00;0.32;;;9.20;77.70;;;;;;5016925;28;20044;-63
2023/04/25 11:26:59;;;;;;;0.47;0.30;;;9.20;78.80;;;;;;5017056;28;20489;-61
2023/04/25 11:29:29;;;;;;;0.20;0.20;;;9.10;79.90;;;;;;5018453;28;20512;-63
2023/04/25 11:31:57;;;;;;;0.35;0.13;;;9.10;79.50;;;;;;5018268;28;20041;-63
2023/04/25 11:34:33;;;;;;;0.63;0.20;;;9.10;78.90;;;;;;5018839;28;20036;-63
2023/04/25 11:36:59;;;;;;;0.15;0.15;;;9.10;78.90;;;;;;5018620;28;20489;-63
2023/04/25 11:39:26;;;;;;;1.33;0.20;;;9.00;78.60;;;;;;5018448;28;20393;-63
2023/04/25 11:41:52;;;;;;;0.20;0.10;;;9.00;78.90;;;;;;5017907;28;20095;-63
2023/04/25 11:44:19;;;;;;;0.10;0.10;;;9.00;79.80;;;;;;5018066;28;20049;-62
2023/04/25 11:46:45;;;;;;;0.10;0.10;;;9.00;79.80;;;;;;5018582;28;20034;-62
2023/04/25 11:49:11;;;;;;;0.20;0.20;;;8.90;79.10;;;;;;5018798;28;20037;-62
2023/04/25 11:51:44;;;;;;;5.60;2.25;;;8.80;78.90;;;;;;5015820;28;20519;-63
2023/04/25 11:54:11;;;;;;;1.77;0.82;;;8.80;79.60;;;;;;5018509;28;20042;-61
2023/04/25 11:56:37;;;;;;;0.77;0.57;;;8.80;79.40;;;;;;5017369;28;20057;-63
2023/04/25 11:59:05;;;;;;;0.20;0.20;;;8.70;80.00;;;;;;5017088;28;20115;-63
2023/04/25 12:01:32;;;;;;;0.20;0.20;;;8.70;80.60;;;;;;5019109;28;20049;-62
2023/04/25 12:03:57;;;;;;;0.20;0.20;;;8.70;80.60;;;;;;5015343;28;20040;-62
2023/04/25 12:06:29;;;;;;;0.20;0.20;;;8.60;80.50;;;;;;5017653;28;20034;-62
2023/04/25 12:09:07;;;;;;;0.30;0.30;;;8.60;81.30;;;;;;5017050;28;20520;-63
2023/04/25 12:11:40;;;;;;;0.30;0.22;;;8.50;81.60;;;;;;5017764;28;20081;-63
2023/04/25 12:14:06;;;;;;;0.30;0.30;;;8.50;81.20;;;;;;5015697;28;20025;-63
2023/04/25 12:16:42;;;;;;;0.20;0.20;;;8.50;81.10;;;;;;5017197;28;20030;-63
2023/04/25 12:19:08;;;;;;;0.20;0.20;;;8.50;81.30;;;;;;5016945;28;20498;-63
2023/04/25 12:21:34;;;;;;;0.50;0.50;;;8.40;81.00;;;;;;5016334;28;20045;-63
2023/04/25 12:24:24;;;;;;;2.53;1.50;;;8.40;81.50;;;;;;5017962;28;20320;-63
2023/04/25 12:27:04;;;;;;;0.68;0.68;;;8.40;83.20;;;;;;5016997;28;20236;-63
2023/04/25 12:29:32;;;;;;;2.20;1.60;;;8.40;82.60;;;;;;5016277;28;20117;-63
2023/04/25 12:31:58;;;;;;;1.70;0.63;;;8.40;82.30;;;;;;5016979;28;20069;-63
2023/04/25 12:34:24;;;;;;;0.98;0.60;;;8.40;82.40;;;;;;5016705;28;20065;-63
2023/04/25 12:36:51;;;;;;;0.30;0.20;;;8.40;82.10;;;;;;5015929;28;20481;-63
2023/04/25 12:39:24;;;;;;;0.70;0.30;;;8.40;82.40;;;;;;5017306;28;20121;-63
2023/04/25 12:41:52;;;;;;;0.40;0.20;;;8.40;82.40;;;;;;5017052;28;20744;-63
2023/04/25 12:44:17;;;;;;;0.40;0.30;;;8.40;82.10;;;;;;5016588;28;20034;-63
2023/04/25 12:46:43;;;;;;;2.25;0.80;;;8.40;82.30;;;;;;5016878;28;20079;-64
2023/04/25 12:49:09;;;;;;;0.80;0.32;;;8.40;82.70;;;;;;5021570;28;20047;-63
2023/04/25 12:51:36;;;;;;;2.95;1.27;;;8.40;82.80;;;;;;5021262;28;20107;-64
2023/04/25 12:54:03;;;;;;;0.57;0.30;;;8.40;82.90;;;;;;5020169;28;20038;-64